createdAt,value
2018-03-28T00:02:34.924Z,63.43
2018-03-28T00:17:35.486Z,61.34
2018-03-28T00:32:37.738Z,61.13
2018-03-28T00:47:35.197Z,61.00
2018-03-28T01:02:34.642Z,60.07
2018-03-28T01:32:35.417Z,60.07
2018-03-28T01:47:34.406Z,59.89
2018-03-28T02:02:34.314Z,59.33
2018-03-28T02:17:34.708Z,59.03
2018-03-28T02:32:36.582Z,59.31
2018-03-28T02:47:34.529Z,64.31
2018-03-28T03:02:34.490Z,65.75
2018-03-28T05:32:35.250Z,59.68
2018-03-28T05:47:35.185Z,58.47
2018-03-28T06:32:34.761Z,41.18
2018-03-28T06:47:35.679Z,38.64
2018-03-28T07:02:36.694Z,34.67
2018-03-28T07:17:34.734Z,33.31
2018-03-28T07:32:36.634Z,31.46
2018-03-28T07:47:36.575Z,30.60
2018-03-28T08:02:35.574Z,30.78
2018-03-28T08:17:34.190Z,32.32
2018-03-28T08:32:35.322Z,32.45
2018-03-28T08:47:36.760Z,32.81
2018-03-28T09:02:36.751Z,32.82
2018-03-28T09:17:37.866Z,33.25
2018-03-28T09:32:34.843Z,33.48
2018-03-28T09:47:33.738Z,33.76
2018-03-28T10:02:40.456Z,33.54
2018-03-28T10:17:34.267Z,32.36
2018-03-28T10:32:37.266Z,31.85
2018-03-28T10:47:35.162Z,30.58
2018-03-28T11:02:35.600Z,28.56
2018-03-28T11:17:34.612Z,29.61
2018-03-28T11:32:34.241Z,30.30
2018-03-28T11:47:34.209Z,31.35
2018-03-28T12:02:34.342Z,31.92
2018-03-28T12:17:36.686Z,32.60
2018-03-28T12:32:33.946Z,32.39
2018-03-28T12:47:35.896Z,33.57
2018-03-28T13:02:34.570Z,33.46
2018-03-28T13:17:35.751Z,32.56
2018-03-28T13:32:34.854Z,33.32
2018-03-28T13:47:35.007Z,33.19
2018-03-28T14:02:36.794Z,34.18
2018-03-28T14:17:35.481Z,33.88
2018-03-28T14:32:34.862Z,34.87
2018-03-28T14:47:36.167Z,35.21
2018-03-28T15:02:34.962Z,35.39
2018-03-28T15:17:36.664Z,36.04
2018-03-28T15:32:34.125Z,36.42
2018-03-28T15:47:35.131Z,37.71
2018-03-28T16:02:36.322Z,38.46
2018-03-28T16:17:34.940Z,38.89
2018-03-28T16:32:40.250Z,39.73
2018-03-28T16:47:34.300Z,41.46
2018-03-28T17:02:34.528Z,42.93
2018-03-28T18:02:38.548Z,46.26
2018-03-28T18:17:51.004Z,47.33
2018-03-28T18:32:35.050Z,49.28
2018-03-28T19:02:39.597Z,49.90
2018-03-28T19:17:34.239Z,50.30
2018-03-28T19:32:40.081Z,50.87
2018-03-28T19:47:35.198Z,51.15
2018-03-28T20:02:37.165Z,52.15
2018-03-28T20:17:34.423Z,52.95
2018-03-28T20:32:34.386Z,54.16
2018-03-28T20:47:34.312Z,53.79
2018-03-28T21:02:34.786Z,53.34
2018-03-28T21:32:35.521Z,53.37
